sensor_id;sensor_type;location;lat;lon;timestamp;temperature;humidity
37544;DHT22;23385;52.038;20.322;2022-09-09T00:02:04;12.40;99.90
37544;DHT22;23385;52.038;20.322;2022-09-09T00:04:36;12.40;99.90
37544;DHT22;23385;52.038;20.322;2022-09-09T00:15:24;12.30;99.90
37544;DHT22;23385;52.038;20.322;2022-09-09T00:18:07;12.30;99.90
37544;DHT22;23385;52.038;20.322;2022-09-09T00:21:13;12.30;99.90
37544;DHT22;23385;52.038;20.322;2022-09-09T00:23:39;12.30;99.90
37544;DHT22;23385;52.038;20.322;2022-09-09T00:31:47;12.30;99.90
37544;DHT22;23385;52.038;20.322;2022-09-09T00:34:21;12.30;99.90
37544;DHT22;23385;52.038;20.322;2022-09-09T00:36:50;12.20;99.90
37544;DHT22;23385;52.038;20.322;2022-09-09T00:39:41;12.20;99.90
37544;DHT22;23385;52.038;20.322;2022-09-09T00:42:23;12.30;99.90
37544;DHT22;23385;52.038;20.322;2022-09-09T00:45:08;12.30;99.90
37544;DHT22;23385;52.038;20.322;2022-09-09T00:47:52;12.30;99.90
37544;DHT22;23385;52.038;20.322;2022-09-09T00:50:44;12.30;99.90
37544;DHT22;23385;52.038;20.322;2022-09-09T00:56:28;12.30;99.90
37544;DHT22;23385;52.038;20.322;2022-09-09T01:01:36;12.30;99.90
37544;DHT22;23385;52.038;20.322;2022-09-09T01:04:13;12.30;99.90
37544;DHT22;23385;52.038;20.322;2022-09-09T01:06:43;12.30;99.90
37544;DHT22;23385;52.038;20.322;2022-09-09T01:17:21;12.20;99.90
37544;DHT22;23385;52.038;20.322;2022-09-09T01:20:20;12.20;99.90
37544;DHT22;23385;52.038;20.322;2022-09-09T01:23:41;12.20;99.90
37544;DHT22;23385;52.038;20.322;2022-09-09T01:26:08;12.20;99.90
37544;DHT22;23385;52.038;20.322;2022-09-09T01:28:36;12.20;99.90
37544;DHT22;23385;52.038;20.322;2022-09-09T01:31:04;12.20;99.90
37544;DHT22;23385;52.038;20.322;2022-09-09T01:33:31;12.20;99.90
37544;DHT22;23385;52.038;20.322;2022-09-09T01:36:13;12.30;99.90
37544;DHT22;23385;52.038;20.322;2022-09-09T01:38:43;12.30;99.90
37544;DHT22;23385;52.038;20.322;2022-09-09T01:41:09;12.30;99.90
37544;DHT22;23385;52.038;20.322;2022-09-09T01:43:35;12.30;99.90
37544;DHT22;23385;52.038;20.322;2022-09-09T01:46:01;12.30;99.90
37544;DHT22;23385;52.038;20.322;2022-09-09T01:48:28;12.30;99.90
37544;DHT22;23385;52.038;20.322;2022-09-09T01:50:55;12.30;99.90
37544;DHT22;23385;52.038;20.322;2022-09-09T01:53:21;12.30;99.90
37544;DHT22;23385;52.038;20.322;2022-09-09T01:56:11;12.30;99.90
37544;DHT22;23385;52.038;20.322;2022-09-09T01:58:54;12.30;99.90
37544;DHT22;23385;52.038;20.322;2022-09-09T02:03:56;12.30;99.90
37544;DHT22;23385;52.038;20.322;2022-09-09T02:06:36;12.30;99.90
37544;DHT22;23385;52.038;20.322;2022-09-09T02:09:07;12.30;99.90
37544;DHT22;23385;52.038;20.322;2022-09-09T02:11:34;12.40;99.90
37544;DHT22;23385;52.038;20.322;2022-09-09T02:19:25;12.30;99.90
37544;DHT22;23385;52.038;20.322;2022-09-09T02:21:56;12.40;99.90
37544;DHT22;23385;52.038;20.322;2022-09-09T02:24:23;12.40;99.90
37544;DHT22;23385;52.038;20.322;2022-09-09T02:26:52;12.40;99.90
37544;DHT22;23385;52.038;20.322;2022-09-09T02:29:31;12.40;99.90
37544;DHT22;23385;52.038;20.322;2022-09-09T02:32:01;12.40;99.90
37544;DHT22;23385;52.038;20.322;2022-09-09T02:34:32;12.40;99.90
37544;DHT22;23385;52.038;20.322;2022-09-09T02:37:03;12.40;99.90
37544;DHT22;23385;52.038;20.322;2022-09-09T02:39:31;12.40;99.90
37544;DHT22;23385;52.038;20.322;2022-09-09T02:41:57;12.50;99.90
37544;DHT22;23385;52.038;20.322;2022-09-09T02:44:23;12.50;99.90
37544;DHT22;23385;52.038;20.322;2022-09-09T02:47:05;12.50;99.90
37544;DHT22;23385;52.038;20.322;2022-09-09T02:52:05;12.50;99.90
37544;DHT22;23385;52.038;20.322;2022-09-09T02:54:38;12.50;99.90
37544;DHT22;23385;52.038;20.322;2022-09-09T02:57:11;12.50;99.90
37544;DHT22;23385;52.038;20.322;2022-09-09T02:59:38;12.50;99.90
37544;DHT22;23385;52.038;20.322;2022-09-09T03:02:04;12.60;99.90
37544;DHT22;23385;52.038;20.322;2022-09-09T03:04:30;12.60;99.90
37544;DHT22;23385;52.038;20.322;2022-09-09T03:06:57;12.60;99.90
37544;DHT22;23385;52.038;20.322;2022-09-09T03:09:24;12.60;99.90
37544;DHT22;23385;52.038;20.322;2022-09-09T03:11:51;12.60;99.90
37544;DHT22;23385;52.038;20.322;2022-09-09T03:14:17;12.60;99.90
37544;DHT22;23385;52.038;20.322;2022-09-09T03:16:47;12.70;99.90
37544;DHT22;23385;52.038;20.322;2022-09-09T03:19:12;12.70;99.90
37544;DHT22;23385;52.038;20.322;2022-09-09T03:21:39;12.70;99.90
37544;DHT22;23385;52.038;20.322;2022-09-09T03:24:05;12.70;99.90
37544;DHT22;23385;52.038;20.322;2022-09-09T03:26:32;12.70;99.90
37544;DHT22;23385;52.038;20.322;2022-09-09T03:28:58;12.80;99.90
37544;DHT22;23385;52.038;20.322;2022-09-09T03:31:26;12.80;99.90
37544;DHT22;23385;52.038;20.322;2022-09-09T03:33:58;12.80;99.90
37544;DHT22;23385;52.038;20.322;2022-09-09T03:36:28;12.90;99.90
37544;DHT22;23385;52.038;20.322;2022-09-09T03:38:55;12.90;99.90
37544;DHT22;23385;52.038;20.322;2022-09-09T03:41:24;12.90;99.90
37544;DHT22;23385;52.038;20.322;2022-09-09T03:43:51;12.90;99.90
37544;DHT22;23385;52.038;20.322;2022-09-09T03:46:21;12.90;99.90
37544;DHT22;23385;52.038;20.322;2022-09-09T03:48:47;12.90;99.90
37544;DHT22;23385;52.038;20.322;2022-09-09T03:51:14;12.90;99.90
37544;DHT22;23385;52.038;20.322;2022-09-09T03:53:42;12.90;99.90
37544;DHT22;23385;52.038;20.322;2022-09-09T03:56:08;12.90;99.90
37544;DHT22;23385;52.038;20.322;2022-09-09T03:58:36;13.00;99.90
37544;DHT22;23385;52.038;20.322;2022-09-09T04:01:07;13.00;99.90
37544;DHT22;23385;52.038;20.322;2022-09-09T04:03:39;13.00;99.90
37544;DHT22;23385;52.038;20.322;2022-09-09T04:06:06;13.00;99.90
37544;DHT22;23385;52.038;20.322;2022-09-09T04:08:33;13.00;99.90
37544;DHT22;23385;52.038;20.322;2022-09-09T04:11:01;13.10;99.90
37544;DHT22;23385;52.038;20.322;2022-09-09T04:13:30;13.10;99.90
37544;DHT22;23385;52.038;20.322;2022-09-09T04:15:58;13.10;99.90
37544;DHT22;23385;52.038;20.322;2022-09-09T04:18:25;13.10;99.90
37544;DHT22;23385;52.038;20.322;2022-09-09T04:20:52;13.20;99.90
37544;DHT22;23385;52.038;20.322;2022-09-09T04:23:19;13.20;99.90
37544;DHT22;23385;52.038;20.322;2022-09-09T04:25:50;13.20;99.90
37544;DHT22;23385;52.038;20.322;2022-09-09T04:28:18;13.20;99.90
37544;DHT22;23385;52.038;20.322;2022-09-09T04:30:45;13.20;99.90
37544;DHT22;23385;52.038;20.322;2022-09-09T04:33:12;13.20;99.90
37544;DHT22;23385;52.038;20.322;2022-09-09T04:35:39;13.20;99.90
37544;DHT22;23385;52.038;20.322;2022-09-09T04:38:06;13.20;99.90
37544;DHT22;23385;52.038;20.322;2022-09-09T04:40:35;13.20;99.90
37544;DHT22;23385;52.038;20.322;2022-09-09T04:43:02;13.20;99.90
37544;DHT22;23385;52.038;20.322;2022-09-09T04:45:31;13.20;99.90
37544;DHT22;23385;52.038;20.322;2022-09-09T04:47:58;13.30;99.90
37544;DHT22;23385;52.038;20.322;2022-09-09T04:50:23;13.30;99.90
37544;DHT22;23385;52.038;20.322;2022-09-09T04:52:50;13.20;99.90
37544;DHT22;23385;52.038;20.322;2022-09-09T04:55:16;13.20;99.90
37544;DHT22;23385;52.038;20.322;2022-09-09T04:57:42;13.30;99.90
37544;DHT22;23385;52.038;20.322;2022-09-09T05:00:08;13.30;99.90
37544;DHT22;23385;52.038;20.322;2022-09-09T05:02:39;13.30;99.90
37544;DHT22;23385;52.038;20.322;2022-09-09T05:05:05;13.30;99.90
37544;DHT22;23385;52.038;20.322;2022-09-09T05:07:32;13.30;99.90
37544;DHT22;23385;52.038;20.322;2022-09-09T05:09:58;13.30;99.90
37544;DHT22;23385;52.038;20.322;2022-09-09T05:12:24;13.30;99.90
37544;DHT22;23385;52.038;20.322;2022-09-09T05:14:54;13.40;99.90
37544;DHT22;23385;52.038;20.322;2022-09-09T05:17:19;13.40;99.90
37544;DHT22;23385;52.038;20.322;2022-09-09T05:19:45;13.40;99.90
37544;DHT22;23385;52.038;20.322;2022-09-09T05:22:11;13.40;99.90
37544;DHT22;23385;52.038;20.322;2022-09-09T05:24:40;13.40;99.90
37544;DHT22;23385;52.038;20.322;2022-09-09T05:27:06;13.40;99.90
37544;DHT22;23385;52.038;20.322;2022-09-09T05:29:32;13.40;99.90
37544;DHT22;23385;52.038;20.322;2022-09-09T05:32:01;13.40;99.90
37544;DHT22;23385;52.038;20.322;2022-09-09T05:34:27;13.40;99.90
37544;DHT22;23385;52.038;20.322;2022-09-09T05:36:53;13.40;99.90
37544;DHT22;23385;52.038;20.322;2022-09-09T05:39:19;13.40;99.90
37544;DHT22;23385;52.038;20.322;2022-09-09T05:41:45;13.40;99.90
37544;DHT22;23385;52.038;20.322;2022-09-09T05:44:10;13.40;99.90
37544;DHT22;23385;52.038;20.322;2022-09-09T05:46:36;13.40;99.90
37544;DHT22;23385;52.038;20.322;2022-09-09T05:49:05;13.40;99.90
37544;DHT22;23385;52.038;20.322;2022-09-09T05:51:31;13.50;99.90
37544;DHT22;23385;52.038;20.322;2022-09-09T05:53:57;13.50;99.90
37544;DHT22;23385;52.038;20.322;2022-09-09T05:56:28;13.50;99.90
37544;DHT22;23385;52.038;20.322;2022-09-09T05:58:55;13.60;99.90
37544;DHT22;23385;52.038;20.322;2022-09-09T06:01:25;13.60;99.90
37544;DHT22;23385;52.038;20.322;2022-09-09T06:03:52;13.50;99.90
37544;DHT22;23385;52.038;20.322;2022-09-09T06:06:23;13.60;99.90
37544;DHT22;23385;52.038;20.322;2022-09-09T06:08:52;13.60;99.90
37544;DHT22;23385;52.038;20.322;2022-09-09T06:11:21;13.60;99.90
37544;DHT22;23385;52.038;20.322;2022-09-09T06:13:47;13.70;99.90
37544;DHT22;23385;52.038;20.322;2022-09-09T06:16:15;13.60;99.90
37544;DHT22;23385;52.038;20.322;2022-09-09T06:18:42;13.70;99.90
37544;DHT22;23385;52.038;20.322;2022-09-09T06:21:28;13.70;99.90
37544;DHT22;23385;52.038;20.322;2022-09-09T06:23:56;13.80;99.90
37544;DHT22;23385;52.038;20.322;2022-09-09T06:26:23;13.80;99.90
37544;DHT22;23385;52.038;20.322;2022-09-09T06:28:52;13.80;99.90
37544;DHT22;23385;52.038;20.322;2022-09-09T06:31:21;13.80;99.90
37544;DHT22;23385;52.038;20.322;2022-09-09T06:33:47;13.90;99.90
37544;DHT22;23385;52.038;20.322;2022-09-09T06:36:21;13.90;99.90
37544;DHT22;23385;52.038;20.322;2022-09-09T06:38:47;14.00;99.90
37544;DHT22;23385;52.038;20.322;2022-09-09T06:41:15;14.00;99.90
37544;DHT22;23385;52.038;20.322;2022-09-09T06:43:41;14.00;99.90
37544;DHT22;23385;52.038;20.322;2022-09-09T06:46:13;14.10;99.90
37544;DHT22;23385;52.038;20.322;2022-09-09T06:48:40;14.10;99.90
37544;DHT22;23385;52.038;20.322;2022-09-09T06:51:20;14.10;99.90
37544;DHT22;23385;52.038;20.322;2022-09-09T06:53:54;14.10;99.90
37544;DHT22;23385;52.038;20.322;2022-09-09T06:56:29;14.10;99.90
37544;DHT22;23385;52.038;20.322;2022-09-09T06:58:56;14.20;99.90
37544;DHT22;23385;52.038;20.322;2022-09-09T07:01:26;14.20;99.90
37544;DHT22;23385;52.038;20.322;2022-09-09T07:03:53;14.30;99.90
37544;DHT22;23385;52.038;20.322;2022-09-09T07:06:28;14.20;99.90
37544;DHT22;23385;52.038;20.322;2022-09-09T07:08:56;14.20;99.90
37544;DHT22;23385;52.038;20.322;2022-09-09T07:11:26;14.30;99.90
37544;DHT22;23385;52.038;20.322;2022-09-09T07:13:52;14.30;99.90
37544;DHT22;23385;52.038;20.322;2022-09-09T07:16:20;14.30;99.90
37544;DHT22;23385;52.038;20.322;2022-09-09T07:18:46;14.40;99.90
37544;DHT22;23385;52.038;20.322;2022-09-09T07:21:14;14.40;99.90
37544;DHT22;23385;52.038;20.322;2022-09-09T07:23:40;14.50;99.90
37544;DHT22;23385;52.038;20.322;2022-09-09T07:26:11;14.50;99.90
37544;DHT22;23385;52.038;20.322;2022-09-09T07:28:38;14.50;99.90
37544;DHT22;23385;52.038;20.322;2022-09-09T07:31:05;14.50;99.90
37544;DHT22;23385;52.038;20.322;2022-09-09T07:33:33;14.60;99.90
37544;DHT22;23385;52.038;20.322;2022-09-09T07:36:04;14.60;99.90
37544;DHT22;23385;52.038;20.322;2022-09-09T07:38:31;14.70;99.90
37544;DHT22;23385;52.038;20.322;2022-09-09T07:41:08;14.80;99.90
37544;DHT22;23385;52.038;20.322;2022-09-09T07:43:41;14.70;99.90
37544;DHT22;23385;52.038;20.322;2022-09-09T07:46:08;14.80;99.90
37544;DHT22;23385;52.038;20.322;2022-09-09T07:48:34;14.80;99.90
37544;DHT22;23385;52.038;20.322;2022-09-09T07:51:09;14.90;99.90
37544;DHT22;23385;52.038;20.322;2022-09-09T07:53:36;14.90;99.90
37544;DHT22;23385;52.038;20.322;2022-09-09T07:56:10;14.90;99.90
37544;DHT22;23385;52.038;20.322;2022-09-09T07:58:37;15.00;99.90
37544;DHT22;23385;52.038;20.322;2022-09-09T08:01:29;15.10;99.90
37544;DHT22;23385;52.038;20.322;2022-09-09T08:03:58;15.20;99.90
37544;DHT22;23385;52.038;20.322;2022-09-09T08:06:25;15.20;99.90
37544;DHT22;23385;52.038;20.322;2022-09-09T08:08:53;15.20;99.90
37544;DHT22;23385;52.038;20.322;2022-09-09T08:11:21;15.20;99.90
37544;DHT22;23385;52.038;20.322;2022-09-09T08:13:49;15.20;99.90
37544;DHT22;23385;52.038;20.322;2022-09-09T08:16:20;15.20;99.90
37544;DHT22;23385;52.038;20.322;2022-09-09T08:18:51;15.10;99.90
37544;DHT22;23385;52.038;20.322;2022-09-09T08:21:25;15.10;99.90
37544;DHT22;23385;52.038;20.322;2022-09-09T08:23:54;15.20;99.90
37544;DHT22;23385;52.038;20.322;2022-09-09T08:26:33;15.30;99.90
37544;DHT22;23385;52.038;20.322;2022-09-09T08:29:00;15.40;99.90
37544;DHT22;23385;52.038;20.322;2022-09-09T08:31:29;15.40;99.90
37544;DHT22;23385;52.038;20.322;2022-09-09T08:33:56;15.40;99.90
37544;DHT22;23385;52.038;20.322;2022-09-09T08:36:24;15.50;99.90
37544;DHT22;23385;52.038;20.322;2022-09-09T08:38:52;15.60;99.90
37544;DHT22;23385;52.038;20.322;2022-09-09T08:41:29;15.70;99.90
37544;DHT22;23385;52.038;20.322;2022-09-09T08:46:48;15.80;99.90
37544;DHT22;23385;52.038;20.322;2022-09-09T08:52:13;15.90;99.90
37544;DHT22;23385;52.038;20.322;2022-09-09T08:54:41;16.00;99.90
37544;DHT22;23385;52.038;20.322;2022-09-09T08:57:14;16.00;99.90
37544;DHT22;23385;52.038;20.322;2022-09-09T08:59:42;15.90;99.90
37544;DHT22;23385;52.038;20.322;2022-09-09T09:05:06;16.00;99.90
37544;DHT22;23385;52.038;20.322;2022-09-09T09:10:56;15.80;99.90
37544;DHT22;23385;52.038;20.322;2022-09-09T09:13:34;15.80;99.90
37544;DHT22;23385;52.038;20.322;2022-09-09T09:16:35;16.00;99.90
37544;DHT22;23385;52.038;20.322;2022-09-09T09:19:03;16.00;99.90
37544;DHT22;23385;52.038;20.322;2022-09-09T09:21:44;16.10;99.90
37544;DHT22;23385;52.038;20.322;2022-09-09T09:24:27;16.10;99.90
37544;DHT22;23385;52.038;20.322;2022-09-09T09:26:59;16.10;99.90
37544;DHT22;23385;52.038;20.322;2022-09-09T09:29:26;16.20;99.90
37544;DHT22;23385;52.038;20.322;2022-09-09T09:31:55;16.30;99.90
37544;DHT22;23385;52.038;20.322;2022-09-09T09:34:23;16.30;99.90
37544;DHT22;23385;52.038;20.322;2022-09-09T09:36:53;16.20;99.90
37544;DHT22;23385;52.038;20.322;2022-09-09T09:39:28;16.10;99.90
37544;DHT22;23385;52.038;20.322;2022-09-09T09:41:54;16.20;99.90
37544;DHT22;23385;52.038;20.322;2022-09-09T09:44:25;16.20;99.90
37544;DHT22;23385;52.038;20.322;2022-09-09T09:46:51;16.20;99.90
37544;DHT22;23385;52.038;20.322;2022-09-09T09:49:17;16.30;99.90
37544;DHT22;23385;52.038;20.322;2022-09-09T09:51:43;16.50;99.90
37544;DHT22;23385;52.038;20.322;2022-09-09T09:56:39;16.50;99.90
37544;DHT22;23385;52.038;20.322;2022-09-09T09:59:18;16.70;99.90
37544;DHT22;23385;52.038;20.322;2022-09-09T10:01:45;16.90;99.90
37544;DHT22;23385;52.038;20.322;2022-09-09T10:04:20;16.90;99.90
37544;DHT22;23385;52.038;20.322;2022-09-09T10:06:49;16.90;99.90
37544;DHT22;23385;52.038;20.322;2022-09-09T10:17:33;16.70;99.90
37544;DHT22;23385;52.038;20.322;2022-09-09T10:22:59;16.90;99.90
37544;DHT22;23385;52.038;20.322;2022-09-09T10:36:32;16.90;99.90
37544;DHT22;23385;52.038;20.322;2022-09-09T10:39:13;16.90;99.90
37544;DHT22;23385;52.038;20.322;2022-09-09T10:44:38;17.00;99.90
37544;DHT22;23385;52.038;20.322;2022-09-09T10:50:29;17.40;99.90
37544;DHT22;23385;52.038;20.322;2022-09-09T10:53:20;17.30;99.90
37544;DHT22;23385;52.038;20.322;2022-09-09T10:55:57;17.60;99.90
37544;DHT22;23385;52.038;20.322;2022-09-09T10:58:41;17.70;99.90
37544;DHT22;23385;52.038;20.322;2022-09-09T11:01:30;17.90;99.90
37544;DHT22;23385;52.038;20.322;2022-09-09T11:04:05;18.00;99.90
37544;DHT22;23385;52.038;20.322;2022-09-09T11:06:39;18.10;99.90
37544;DHT22;23385;52.038;20.322;2022-09-09T11:09:14;17.90;99.90
37544;DHT22;23385;52.038;20.322;2022-09-09T11:11:49;18.10;99.90
37544;DHT22;23385;52.038;20.322;2022-09-09T11:14:43;17.90;99.90
37544;DHT22;23385;52.038;20.322;2022-09-09T11:17:22;17.90;99.90
37544;DHT22;23385;52.038;20.322;2022-09-09T11:19:49;17.90;99.90
37544;DHT22;23385;52.038;20.322;2022-09-09T11:22:34;18.00;99.90
37544;DHT22;23385;52.038;20.322;2022-09-09T11:36:16;17.80;99.90
37544;DHT22;23385;52.038;20.322;2022-09-09T11:38:51;17.80;99.90
37544;DHT22;23385;52.038;20.322;2022-09-09T11:41:19;17.80;99.90
37544;DHT22;23385;52.038;20.322;2022-09-09T11:43:50;18.00;99.90
37544;DHT22;23385;52.038;20.322;2022-09-09T11:46:21;18.10;99.90
37544;DHT22;23385;52.038;20.322;2022-09-09T11:49:04;18.30;99.90
37544;DHT22;23385;52.038;20.322;2022-09-09T11:51:33;18.30;99.90
37544;DHT22;23385;52.038;20.322;2022-09-09T11:54:21;18.20;99.90
37544;DHT22;23385;52.038;20.322;2022-09-09T11:56:48;18.00;99.90
37544;DHT22;23385;52.038;20.322;2022-09-09T11:59:28;18.10;99.90
37544;DHT22;23385;52.038;20.322;2022-09-09T12:01:58;18.20;99.90
37544;DHT22;23385;52.038;20.322;2022-09-09T12:09:45;18.50;99.90
37544;DHT22;23385;52.038;20.322;2022-09-09T12:17:31;18.40;99.90
37544;DHT22;23385;52.038;20.322;2022-09-09T12:25:35;18.70;99.90
37544;DHT22;23385;52.038;20.322;2022-09-09T12:28:17;18.90;99.90
37544;DHT22;23385;52.038;20.322;2022-09-09T12:33:23;19.10;99.90
37544;DHT22;23385;52.038;20.322;2022-09-09T12:35:57;18.80;99.90
37544;DHT22;23385;52.038;20.322;2022-09-09T12:38:32;19.10;99.90
37544;DHT22;23385;52.038;20.322;2022-09-09T12:41:00;19.40;99.90
37544;DHT22;23385;52.038;20.322;2022-09-09T12:43:27;19.60;99.90
37544;DHT22;23385;52.038;20.322;2022-09-09T12:46:06;19.60;99.90
37544;DHT22;23385;52.038;20.322;2022-09-09T12:48:39;19.40;99.90
37544;DHT22;23385;52.038;20.322;2022-09-09T12:51:21;19.50;99.90
37544;DHT22;23385;52.038;20.322;2022-09-09T12:53:51;19.70;99.90
37544;DHT22;23385;52.038;20.322;2022-09-09T12:56:21;20.00;99.90
37544;DHT22;23385;52.038;20.322;2022-09-09T12:58:50;20.40;99.90
37544;DHT22;23385;52.038;20.322;2022-09-09T13:01:26;20.80;99.90
37544;DHT22;23385;52.038;20.322;2022-09-09T13:03:52;21.00;99.90
37544;DHT22;23385;52.038;20.322;2022-09-09T13:06:30;21.30;99.90
37544;DHT22;23385;52.038;20.322;2022-09-09T13:09:01;21.40;99.90
37544;DHT22;23385;52.038;20.322;2022-09-09T13:11:40;21.40;99.90
37544;DHT22;23385;52.038;20.322;2022-09-09T13:14:19;21.30;99.90
37544;DHT22;23385;52.038;20.322;2022-09-09T13:16:56;21.10;99.90
37544;DHT22;23385;52.038;20.322;2022-09-09T13:19:22;20.90;99.90
37544;DHT22;23385;52.038;20.322;2022-09-09T13:21:51;20.80;99.90
37544;DHT22;23385;52.038;20.322;2022-09-09T13:24:36;20.70;99.90
37544;DHT22;23385;52.038;20.322;2022-09-09T13:27:05;20.80;99.90
37544;DHT22;23385;52.038;20.322;2022-09-09T13:29:52;20.70;99.90
37544;DHT22;23385;52.038;20.322;2022-09-09T13:32:23;20.70;99.90
37544;DHT22;23385;52.038;20.322;2022-09-09T13:34:53;20.60;99.90
37544;DHT22;23385;52.038;20.322;2022-09-09T13:37:40;20.60;99.90
37544;DHT22;23385;52.038;20.322;2022-09-09T13:40:17;20.60;99.90
37544;DHT22;23385;52.038;20.322;2022-09-09T13:42:44;20.80;99.90
37544;DHT22;23385;52.038;20.322;2022-09-09T13:45:19;20.90;99.90
37544;DHT22;23385;52.038;20.322;2022-09-09T13:47:48;21.00;99.90
37544;DHT22;23385;52.038;20.322;2022-09-09T13:52:48;21.20;99.90
37544;DHT22;23385;52.038;20.322;2022-09-09T13:55:17;21.50;99.90
37544;DHT22;23385;52.038;20.322;2022-09-09T13:57:58;21.10;99.90
37544;DHT22;23385;52.038;20.322;2022-09-09T14:00:25;21.50;99.90
37544;DHT22;23385;52.038;20.322;2022-09-09T14:02:51;21.70;99.90
37544;DHT22;23385;52.038;20.322;2022-09-09T14:05:18;21.80;99.90
37544;DHT22;23385;52.038;20.322;2022-09-09T14:07:44;21.70;99.90
37544;DHT22;23385;52.038;20.322;2022-09-09T14:10:11;21.70;99.90
37544;DHT22;23385;52.038;20.322;2022-09-09T14:12:38;21.80;99.90
37544;DHT22;23385;52.038;20.322;2022-09-09T14:15:05;21.90;99.90
37544;DHT22;23385;52.038;20.322;2022-09-09T14:17:32;22.20;99.90
37544;DHT22;23385;52.038;20.322;2022-09-09T14:19:58;22.50;99.90
37544;DHT22;23385;52.038;20.322;2022-09-09T14:22:24;22.50;99.90
37544;DHT22;23385;52.038;20.322;2022-09-09T14:24:51;22.50;99.90
37544;DHT22;23385;52.038;20.322;2022-09-09T14:27:17;22.20;99.90
37544;DHT22;23385;52.038;20.322;2022-09-09T14:29:44;22.30;99.90
37544;DHT22;23385;52.038;20.322;2022-09-09T14:32:11;22.40;99.90
37544;DHT22;23385;52.038;20.322;2022-09-09T14:34:37;22.40;99.90
37544;DHT22;23385;52.038;20.322;2022-09-09T14:37:03;22.50;99.90
37544;DHT22;23385;52.038;20.322;2022-09-09T14:39:29;22.60;99.90
37544;DHT22;23385;52.038;20.322;2022-09-09T14:41:55;22.60;99.90
37544;DHT22;23385;52.038;20.322;2022-09-09T14:44:21;22.50;99.90
37544;DHT22;23385;52.038;20.322;2022-09-09T14:46:47;22.50;99.90
37544;DHT22;23385;52.038;20.322;2022-09-09T14:49:16;22.60;99.90
37544;DHT22;23385;52.038;20.322;2022-09-09T14:51:42;22.70;99.90
37544;DHT22;23385;52.038;20.322;2022-09-09T14:54:08;22.80;99.90
37544;DHT22;23385;52.038;20.322;2022-09-09T14:56:34;22.70;99.90
37544;DHT22;23385;52.038;20.322;2022-09-09T14:59:03;22.80;99.90
37544;DHT22;23385;52.038;20.322;2022-09-09T15:01:30;22.90;99.90
37544;DHT22;23385;52.038;20.322;2022-09-09T15:04:02;23.10;99.90
37544;DHT22;23385;52.038;20.322;2022-09-09T15:06:30;23.00;99.90
37544;DHT22;23385;52.038;20.322;2022-09-09T15:08:58;22.50;99.90
37544;DHT22;23385;52.038;20.322;2022-09-09T15:11:29;22.50;99.90
37544;DHT22;23385;52.038;20.322;2022-09-09T15:14:00;22.40;99.90
37544;DHT22;23385;52.038;20.322;2022-09-09T15:16:27;22.50;99.90
37544;DHT22;23385;52.038;20.322;2022-09-09T15:18:55;22.40;99.90
37544;DHT22;23385;52.038;20.322;2022-09-09T15:21:24;22.50;99.90
37544;DHT22;23385;52.038;20.322;2022-09-09T15:23:50;22.50;99.90
37544;DHT22;23385;52.038;20.322;2022-09-09T15:26:17;22.60;99.90
37544;DHT22;23385;52.038;20.322;2022-09-09T15:28:44;22.50;99.90
37544;DHT22;23385;52.038;20.322;2022-09-09T15:31:13;22.40;99.90
37544;DHT22;23385;52.038;20.322;2022-09-09T15:33:49;22.30;99.90
37544;DHT22;23385;52.038;20.322;2022-09-09T15:36:23;22.40;99.90
37544;DHT22;23385;52.038;20.322;2022-09-09T15:38:50;22.50;99.90
37544;DHT22;23385;52.038;20.322;2022-09-09T15:41:17;22.30;99.90
37544;DHT22;23385;52.038;20.322;2022-09-09T15:43:45;22.20;99.90
37544;DHT22;23385;52.038;20.322;2022-09-09T15:46:35;22.20;99.90
37544;DHT22;23385;52.038;20.322;2022-09-09T15:49:08;22.20;99.90
37544;DHT22;23385;52.038;20.322;2022-09-09T15:51:37;22.00;99.90
37544;DHT22;23385;52.038;20.322;2022-09-09T15:54:04;21.80;99.90
37544;DHT22;23385;52.038;20.322;2022-09-09T15:56:31;21.70;99.90
37544;DHT22;23385;52.038;20.322;2022-09-09T15:58:59;21.60;99.90
37544;DHT22;23385;52.038;20.322;2022-09-09T16:01:26;21.40;99.90
37544;DHT22;23385;52.038;20.322;2022-09-09T16:03:52;21.20;99.90
37544;DHT22;23385;52.038;20.322;2022-09-09T16:06:22;20.90;99.90
37544;DHT22;23385;52.038;20.322;2022-09-09T16:08:50;20.80;99.90
37544;DHT22;23385;52.038;20.322;2022-09-09T16:11:19;20.70;99.90
37544;DHT22;23385;52.038;20.322;2022-09-09T16:13:47;20.50;99.90
37544;DHT22;23385;52.038;20.322;2022-09-09T16:16:15;20.40;99.90
37544;DHT22;23385;52.038;20.322;2022-09-09T16:18:47;20.40;99.90
37544;DHT22;23385;52.038;20.322;2022-09-09T16:21:19;20.30;99.90
37544;DHT22;23385;52.038;20.322;2022-09-09T16:23:45;20.20;99.90
37544;DHT22;23385;52.038;20.322;2022-09-09T16:26:13;20.20;99.90
37544;DHT22;23385;52.038;20.322;2022-09-09T16:28:39;20.20;99.90
37544;DHT22;23385;52.038;20.322;2022-09-09T16:31:10;20.00;99.90
37544;DHT22;23385;52.038;20.322;2022-09-09T16:33:37;19.90;99.90
37544;DHT22;23385;52.038;20.322;2022-09-09T16:36:13;19.80;99.90
37544;DHT22;23385;52.038;20.322;2022-09-09T16:38:40;19.70;99.90
37544;DHT22;23385;52.038;20.322;2022-09-09T16:41:06;19.50;99.90
37544;DHT22;23385;52.038;20.322;2022-09-09T16:43:34;19.30;99.90
37544;DHT22;23385;52.038;20.322;2022-09-09T16:46:11;19.30;99.90
37544;DHT22;23385;52.038;20.322;2022-09-09T16:48:37;19.20;99.90
37544;DHT22;23385;52.038;20.322;2022-09-09T16:51:09;19.20;99.90
37544;DHT22;23385;52.038;20.322;2022-09-09T16:53:36;19.00;99.90
37544;DHT22;23385;52.038;20.322;2022-09-09T16:56:06;19.00;99.90
37544;DHT22;23385;52.038;20.322;2022-09-09T16:58:33;18.90;99.90
37544;DHT22;23385;52.038;20.322;2022-09-09T17:01:00;18.70;99.90
37544;DHT22;23385;52.038;20.322;2022-09-09T17:03:27;18.60;99.90
37544;DHT22;23385;52.038;20.322;2022-09-09T17:05:53;18.40;99.90
37544;DHT22;23385;52.038;20.322;2022-09-09T17:08:19;18.30;99.90
37544;DHT22;23385;52.038;20.322;2022-09-09T17:10:45;18.10;99.90
37544;DHT22;23385;52.038;20.322;2022-09-09T17:13:12;18.00;99.90
37544;DHT22;23385;52.038;20.322;2022-09-09T17:15:42;18.00;99.90
37544;DHT22;23385;52.038;20.322;2022-09-09T17:18:09;17.90;99.90
37544;DHT22;23385;52.038;20.322;2022-09-09T17:20:41;17.80;99.90
37544;DHT22;23385;52.038;20.322;2022-09-09T17:23:08;17.80;99.90
37544;DHT22;23385;52.038;20.322;2022-09-09T17:25:35;17.70;99.90
37544;DHT22;23385;52.038;20.322;2022-09-09T17:28:02;17.60;99.90
37544;DHT22;23385;52.038;20.322;2022-09-09T17:30:30;17.50;99.90